Terminal Aerodrome Forecast
Issued by NWS

Home | Current Version | Previous Version | Graphics & Text | Print | Product List | Glossary Off
Versions: 1 2 3 4 5 6 7 8 9 10 11 12 13 14 15 16 17

379
FTUS43 KICT 242339
TAFRSL
TAF
KRSL 242339Z 2500/2524 04009KT P6SM FEW050 OVC120
     FM250100 06008KT P6SM VCTS SCT050CB BKN090
     FM250900 04008KT P6SM VCTS OVC030CB
     FM251700 06008KT P6SM VCTS BKN045CB=

USA.gov is the U.S. government's official web portal to all federal, state and local government web resources and services.